createdAt,value
2023-01-09T00:00:48.605Z,39.0880
2023-01-09T00:01:50.959Z,39.0890
2023-01-09T00:02:53.346Z,39.1160
2023-01-09T00:03:55.780Z,39.1280
2023-01-09T00:04:58.023Z,39.1220
2023-01-09T00:05:58.184Z,39.1250
2023-01-09T00:07:00.553Z,39.1350
2023-01-09T00:08:02.974Z,39.0950
2023-01-09T00:09:05.313Z,39.1100
2023-01-09T00:10:07.713Z,39.1080
2023-01-09T00:11:07.939Z,39.1100
2023-01-09T00:12:10.332Z,39.1100
2023-01-09T00:13:12.766Z,39.1140
2023-01-09T00:14:15.035Z,39.0950
2023-01-09T00:15:15.233Z,39.1220
2023-01-09T00:16:17.613Z,39.1080
2023-01-09T00:17:19.948Z,39.0810
2023-01-09T00:18:22.262Z,39.0980
2023-01-09T00:19:24.547Z,39.0940
2023-01-09T00:20:26.912Z,39.0590
2023-01-09T00:21:27.054Z,39.0920
2023-01-09T00:22:29.348Z,39.1190
2023-01-09T00:23:31.834Z,39.0940
2023-01-09T00:24:34.056Z,39.0710
2023-01-09T00:25:34.261Z,39.0710
2023-01-09T00:26:36.611Z,39.0380
2023-01-09T00:27:38.980Z,39.0590
2023-01-09T00:28:41.399Z,39.0690
2023-01-09T00:29:43.684Z,39.1060
2023-01-09T00:30:43.913Z,39.0360
2023-01-09T00:31:46.229Z,39.0500
2023-01-09T00:32:48.609Z,39.0830
2023-01-09T00:33:51.003Z,39.1280
2023-01-09T00:34:53.328Z,39.1220
2023-01-09T00:35:53.585Z,39.1280
2023-01-09T00:36:56.015Z,39.0980
2023-01-09T00:37:58.430Z,39.1040
2023-01-09T00:39:00.884Z,39.0860
2023-01-09T00:40:01.083Z,39.0500
2023-01-09T00:41:03.482Z,39.0770
2023-01-09T00:42:05.893Z,39.0930
2023-01-09T00:43:08.301Z,39.0930
2023-01-09T00:44:08.688Z,39.1320
2023-01-09T00:45:10.957Z,39.0930
2023-01-09T00:46:13.534Z,39.0990
2023-01-09T00:47:15.802Z,39.1040
2023-01-09T00:48:16.048Z,39.0930
2023-01-09T00:49:18.483Z,39.1140
2023-01-09T00:50:20.884Z,39.1260
2023-01-09T00:51:25.388Z,39.1100
2023-01-09T00:51:42.605Z,39.1080
2023-01-09T00:52:44.962Z,39.0710
2023-01-09T00:53:47.357Z,39.0830
2023-01-09T00:54:49.786Z,39.0750
2023-01-09T00:55:49.997Z,39.0750
2023-01-09T00:56:52.356Z,39.0810
2023-01-09T00:57:54.714Z,39.0930
2023-01-09T00:58:57.043Z,39.0810
2023-01-09T00:59:57.378Z,39.0870
2023-01-09T01:00:59.721Z,39.1280
2023-01-09T01:02:02.161Z,39.1200
2023-01-09T01:03:04.323Z,39.1320
2023-01-09T01:04:06.641Z,39.0990
2023-01-09T01:05:06.828Z,39.0420
2023-01-09T01:06:09.092Z,39.0870
2023-01-09T01:07:11.395Z,39.0810
2023-01-09T01:08:13.723Z,39.0810
2023-01-09T01:09:16.076Z,39.0930
2023-01-09T01:10:18.432Z,39.0780
2023-01-09T01:11:18.611Z,39.1030
2023-01-09T01:12:20.955Z,39.1100
2023-01-09T01:13:23.314Z,39.0930
2023-01-09T01:14:25.670Z,39.0750
2023-01-09T01:15:28.149Z,39.0910
2023-01-09T01:16:28.372Z,39.1300
2023-01-09T01:17:30.754Z,39.1200
2023-01-09T01:18:33.150Z,39.1200
2023-01-09T01:19:35.507Z,39.1080
2023-01-09T01:20:35.778Z,39.1030
2023-01-09T01:21:37.985Z,39.1300
2023-01-09T01:22:40.326Z,39.1200
2023-01-09T01:23:42.648Z,39.0910
2023-01-09T01:24:44.961Z,39.0810
2023-01-09T01:25:45.159Z,39.0780
2023-01-09T01:26:47.428Z,39.0720
2023-01-09T01:27:49.671Z,39.0970
2023-01-09T01:28:51.919Z,39.1030
2023-01-09T01:29:54.165Z,39.0870
2023-01-09T01:30:56.618Z,39.0540
2023-01-09T01:31:58.682Z,39.0330
2023-01-09T01:32:58.865Z,39.0360
2023-01-09T01:34:01.176Z,39.0390
2023-01-09T01:35:03.468Z,39.0780
2023-01-09T01:36:05.832Z,39.0990
2023-01-09T01:37:08.032Z,39.1080
2023-01-09T01:38:10.326Z,39.1170
2023-01-09T01:39:12.637Z,39.1170
2023-01-09T01:40:12.813Z,39.0780
2023-01-09T01:41:15.150Z,39.0990
2023-01-09T01:42:17.423Z,39.1260
2023-01-09T01:43:19.682Z,39.0640
2023-01-09T01:44:22.027Z,39.0700
2023-01-09T01:45:24.327Z,39.0830
2023-01-09T01:46:24.463Z,39.0780
2023-01-09T01:47:26.643Z,39.0750
2023-01-09T01:48:28.912Z,39.1030
2023-01-09T01:49:31.188Z,39.0870
2023-01-09T01:50:33.499Z,39.0830
2023-01-09T01:51:35.754Z,39.0910
2023-01-09T01:52:38.018Z,39.1030
2023-01-09T01:53:40.298Z,39.1030
2023-01-09T01:54:42.624Z,39.1170
2023-01-09T01:55:42.782Z,39.1210
2023-01-09T01:56:45.236Z,39.0970
2023-01-09T01:57:47.452Z,39.1260
2023-01-09T01:58:49.828Z,39.1170
2023-01-09T01:59:52.151Z,39.0910
2023-01-09T02:00:52.335Z,39.0640
2023-01-09T02:01:54.800Z,39.0210
2023-01-09T02:02:56.955Z,39.0910
2023-01-09T02:03:59.232Z,39.1210
2023-01-09T02:05:01.517Z,39.1150
2023-01-09T02:06:03.843Z,39.1320
2023-01-09T02:07:04.058Z,39.1440
2023-01-09T02:08:06.357Z,39.0990
2023-01-09T02:09:08.729Z,39.0930
2023-01-09T02:10:11.032Z,39.1090
2023-01-09T02:11:13.412Z,39.1030
2023-01-09T02:12:13.654Z,39.1420
2023-01-09T02:13:15.978Z,39.1260
2023-01-09T02:14:18.321Z,39.1420
2023-01-09T02:15:20.692Z,39.1360
2023-01-09T02:16:23.117Z,39.1420
2023-01-09T02:17:23.283Z,39.1420
2023-01-09T02:18:25.568Z,39.1420
2023-01-09T02:19:27.937Z,39.1250
2023-01-09T02:20:30.263Z,39.1260
2023-01-09T02:21:32.608Z,39.0920
2023-01-09T02:22:32.858Z,39.1090
2023-01-09T02:23:35.033Z,39.0610
2023-01-09T02:24:37.295Z,39.0550
2023-01-09T02:25:39.550Z,39.0860
2023-01-09T02:26:41.784Z,39.0800
2023-01-09T02:27:44.101Z,39.0800
2023-01-09T02:28:46.369Z,39.0530
2023-01-09T02:29:46.497Z,39.0250
2023-01-09T02:30:48.842Z,38.9790
2023-01-09T02:31:51.230Z,38.9710
2023-01-09T02:32:53.455Z,38.9400
2023-01-09T02:33:55.722Z,38.9540
2023-01-09T02:34:58.077Z,38.9440
2023-01-09T02:36:00.400Z,38.9680
2023-01-09T02:37:02.668Z,38.9920
2023-01-09T02:38:05.072Z,38.9680
2023-01-09T02:39:07.339Z,38.9480
2023-01-09T02:40:09.656Z,38.9540
2023-01-09T02:41:11.949Z,38.9230
2023-01-09T02:42:12.169Z,38.9230
2023-01-09T02:43:14.529Z,38.9330
2023-01-09T02:44:16.826Z,38.9330
2023-01-09T02:45:19.151Z,38.9510
2023-01-09T02:46:21.449Z,38.9680
2023-01-09T02:47:21.582Z,38.9780
2023-01-09T02:48:24.004Z,38.9660
2023-01-09T02:49:26.206Z,38.9720
2023-01-09T02:50:28.565Z,38.9760
2023-01-09T02:51:30.906Z,38.9600
2023-01-09T02:52:33.269Z,38.9940
2023-01-09T02:53:33.646Z,38.9840
2023-01-09T02:54:35.916Z,38.9880
2023-01-09T02:55:38.297Z,38.9990
2023-01-09T02:56:40.663Z,38.9940
2023-01-09T02:57:40.875Z,38.9780
2023-01-09T02:58:43.311Z,38.9880
2023-01-09T02:59:45.639Z,39.0230
2023-01-09T03:00:48.097Z,39.0230
2023-01-09T03:01:50.589Z,38.9990
2023-01-09T03:02:50.703Z,38.9780
2023-01-09T03:03:53.100Z,38.9430
2023-01-09T03:04:55.430Z,38.8960
2023-01-09T03:05:57.798Z,38.8890
2023-01-09T03:06:58.024Z,38.9300
2023-01-09T03:08:00.397Z,38.9340
2023-01-09T03:09:02.795Z,38.9270
2023-01-09T03:10:05.106Z,38.8670
2023-01-09T03:11:07.487Z,38.8310
2023-01-09T03:12:09.843Z,38.8030
2023-01-09T03:13:12.213Z,38.7800
2023-01-09T03:14:14.573Z,38.7910
2023-01-09T03:15:14.731Z,38.8130
2023-01-09T03:16:17.219Z,38.8310
2023-01-09T03:17:19.528Z,38.8500
2023-01-09T03:18:21.878Z,38.8130
2023-01-09T03:19:24.326Z,38.8560
2023-01-09T03:20:24.559Z,38.8110
2023-01-09T03:21:26.881Z,38.8840
2023-01-09T03:22:29.255Z,38.8850
2023-01-09T03:23:31.593Z,38.9070
2023-01-09T03:24:31.898Z,38.9130
2023-01-09T03:25:34.190Z,38.8840
2023-01-09T03:26:36.568Z,38.9130
2023-01-09T03:27:38.965Z,38.9180
2023-01-09T03:28:41.363Z,38.8890
2023-01-09T03:29:41.639Z,38.9340
2023-01-09T03:30:44.036Z,38.9510
2023-01-09T03:31:46.512Z,38.9510
2023-01-09T03:32:48.851Z,38.9280
2023-01-09T03:33:49.070Z,38.9130
2023-01-09T03:34:51.499Z,38.8890
2023-01-09T03:35:53.791Z,38.8840
2023-01-09T03:36:56.162Z,38.8860
2023-01-09T03:37:56.416Z,38.8740
2023-01-09T03:38:58.763Z,38.8450
2023-01-09T03:40:01.121Z,38.8660
2023-01-09T03:41:03.426Z,38.8930
2023-01-09T03:42:05.726Z,38.8720
2023-01-09T03:43:05.903Z,38.8930
2023-01-09T03:44:08.206Z,38.9110
2023-01-09T03:45:10.578Z,38.9160
2023-01-09T03:46:13.007Z,38.8930
2023-01-09T03:47:15.313Z,38.8930
2023-01-09T03:48:17.608Z,38.8800
2023-01-09T03:49:19.942Z,38.9400
2023-01-09T03:50:22.348Z,38.9460
2023-01-09T03:51:24.635Z,38.9580
2023-01-09T03:52:26.959Z,38.9400
2023-01-09T03:53:27.159Z,38.9210
2023-01-09T03:54:29.506Z,38.9480
2023-01-09T03:55:31.880Z,38.9480
2023-01-09T03:56:34.188Z,38.8800
2023-01-09T03:58:56.201Z,38.9210
2023-01-09T03:59:58.497Z,38.8680
2023-01-09T04:01:01.044Z,38.8690
2023-01-09T04:02:04.107Z,38.8920
2023-01-09T04:03:05.420Z,38.9250
2023-01-09T04:04:07.772Z,38.9250
2023-01-09T04:05:07.867Z,38.8920
2023-01-09T04:06:10.220Z,38.8750
2023-01-09T04:07:12.558Z,38.8280
2023-01-09T04:08:14.924Z,38.7640
2023-01-09T04:09:17.297Z,38.7800
2023-01-09T04:10:17.507Z,38.7950
2023-01-09T04:11:19.863Z,38.7970
2023-01-09T04:12:22.172Z,38.8270
2023-01-09T04:13:24.533Z,38.8220
2023-01-09T04:14:26.899Z,38.8440
2023-01-09T04:15:27.085Z,38.8150
2023-01-09T04:16:29.667Z,38.7680
2023-01-09T04:17:31.828Z,38.7470
2023-01-09T04:18:34.187Z,38.6980
2023-01-09T04:19:36.555Z,38.7020
2023-01-09T04:20:36.775Z,38.6990
2023-01-09T04:21:39.214Z,38.7510
2023-01-09T04:22:41.562Z,38.7920
2023-01-09T04:23:43.937Z,38.7790
2023-01-09T04:24:44.180Z,38.7790
2023-01-09T04:25:46.562Z,38.7200
2023-01-09T04:26:48.974Z,38.7590
2023-01-09T04:27:51.256Z,38.7200
2023-01-09T04:28:53.594Z,38.7380
2023-01-09T04:29:53.767Z,38.7710
2023-01-09T04:30:56.113Z,38.7480
2023-01-09T04:31:58.485Z,38.7400
2023-01-09T04:33:00.837Z,38.7590
2023-01-09T04:34:03.258Z,38.7480
2023-01-09T04:35:05.633Z,38.7210
2023-01-09T04:36:08.015Z,38.6610
2023-01-09T04:37:10.432Z,38.6490
2023-01-09T04:38:10.599Z,38.6610
2023-01-09T04:39:12.975Z,38.6550
2023-01-09T04:40:15.332Z,38.6580
2023-01-09T04:41:17.619Z,38.6820
2023-01-09T04:42:20.058Z,38.6890
2023-01-09T04:43:22.247Z,38.7040
2023-01-09T04:44:22.410Z,38.7040
2023-01-09T04:45:24.706Z,38.6830
2023-01-09T04:46:26.967Z,38.6520
2023-01-09T04:47:29.310Z,38.6410
2023-01-09T04:48:31.560Z,38.7000
2023-01-09T04:49:33.911Z,38.6990
2023-01-09T04:50:34.084Z,38.6470
2023-01-09T04:51:36.440Z,38.6350
2023-01-09T04:52:39.183Z,38.6600
2023-01-09T04:53:41.107Z,38.6530
2023-01-09T04:54:43.401Z,38.6350
2023-01-09T04:55:45.743Z,38.6290
2023-01-09T04:56:45.941Z,38.6120
2023-01-09T04:57:48.348Z,38.6120
2023-01-09T04:58:50.648Z,38.5690
2023-01-09T04:59:54.270Z,38.5940
2023-01-09T05:00:55.477Z,38.6220
2023-01-09T05:01:55.664Z,38.6420
2023-01-09T05:02:57.956Z,38.6180
2023-01-09T05:04:00.348Z,38.6000
2023-01-09T05:05:02.628Z,38.5970
2023-01-09T05:06:04.998Z,38.5290
2023-01-09T05:07:05.194Z,38.5470
2023-01-09T05:08:07.618Z,38.5520
2023-01-09T05:09:09.970Z,38.5350
2023-01-09T05:10:10.148Z,38.5290
2023-01-09T05:11:12.470Z,38.5510
2023-01-09T05:12:14.828Z,38.5510
2023-01-09T05:13:17.281Z,38.5560
2023-01-09T05:14:19.523Z,38.5680
2023-01-09T05:15:19.666Z,38.5450
2023-01-09T05:16:22.066Z,38.5650
2023-01-09T05:17:24.322Z,38.5650
2023-01-09T05:18:26.790Z,38.5840
2023-01-09T05:19:28.924Z,38.5720
2023-01-09T05:20:31.260Z,38.5800
2023-01-09T05:21:31.458Z,38.5700
2023-01-09T05:22:33.780Z,38.5510
2023-01-09T05:23:36.151Z,38.5370
2023-01-09T05:24:38.435Z,38.5370
2023-01-09T05:26:30.376Z,38.5780
2023-01-09T05:27:32.666Z,38.5530
2023-01-09T05:28:34.985Z,38.4930
2023-01-09T05:29:37.359Z,38.5140
2023-01-09T05:30:37.554Z,38.5360
2023-01-09T05:31:39.964Z,38.5120
2023-01-09T05:32:42.282Z,38.5400
2023-01-09T05:33:44.638Z,38.5410
2023-01-09T05:34:47.152Z,38.5310
2023-01-09T05:35:36.498Z,38.5510
2023-01-09T05:36:38.872Z,38.5180
2023-01-09T05:37:41.248Z,38.4870
2023-01-09T05:38:43.609Z,38.4270
2023-01-09T05:39:43.800Z,38.4470
2023-01-09T05:40:46.171Z,38.4330
2023-01-09T05:41:48.471Z,38.3870
2023-01-09T05:42:50.835Z,38.4340
2023-01-09T05:43:53.215Z,38.4410
2023-01-09T05:44:53.448Z,38.4370
2023-01-09T05:45:55.888Z,38.4280
2023-01-09T05:46:58.236Z,38.4370
2023-01-09T05:48:00.639Z,38.4410
2023-01-09T05:49:00.875Z,38.4370
2023-01-09T05:50:03.298Z,38.4550
2023-01-09T05:51:07.371Z,38.4430
2023-01-09T05:52:07.972Z,38.4520
2023-01-09T05:53:10.333Z,38.4870
2023-01-09T05:54:10.557Z,38.5290
2023-01-09T05:55:12.869Z,38.5410
2023-01-09T05:56:15.312Z,38.5520
2023-01-09T05:57:17.534Z,38.5160
2023-01-09T05:58:19.844Z,38.5520
2023-01-09T05:59:20.034Z,38.5970
2023-01-09T06:00:22.374Z,38.6350
2023-01-09T06:01:24.785Z,38.6350
2023-01-09T06:02:27.096Z,38.6170
2023-01-09T06:03:29.352Z,38.6110
2023-01-09T06:04:31.654Z,38.6290
2023-01-09T06:05:31.848Z,38.6290
2023-01-09T06:06:34.319Z,38.6460
2023-01-09T06:07:36.556Z,38.6520
2023-01-09T06:08:38.873Z,38.6710
2023-01-09T06:09:41.189Z,38.6770
2023-01-09T06:10:41.352Z,38.6550
2023-01-09T06:11:43.755Z,38.6430
2023-01-09T06:12:46.059Z,38.6490
2023-01-09T06:13:48.405Z,38.6490
2023-01-09T06:14:48.663Z,38.6770
2023-01-09T06:15:51.090Z,38.7060
2023-01-09T06:16:53.518Z,38.7170
2023-01-09T06:17:55.780Z,38.7480
2023-01-09T06:18:58.163Z,38.7110
2023-01-09T06:19:58.377Z,38.7400
2023-01-09T06:21:00.750Z,38.7170
2023-01-09T06:22:03.197Z,38.7350
2023-01-09T06:23:05.530Z,38.1000
2023-01-09T06:24:05.730Z,37.4490
2023-01-09T06:25:08.119Z,37.3040
2023-01-09T06:26:10.453Z,36.8620
2023-01-09T06:27:12.893Z,36.6300
2023-01-09T06:28:15.246Z,36.3560
2023-01-09T06:29:15.522Z,36.1280
2023-01-09T06:30:17.941Z,35.7840
2023-01-09T06:31:20.425Z,35.7610
2023-01-09T06:32:22.833Z,35.8130
2023-01-09T06:33:22.959Z,37.2680
2023-01-09T06:34:25.353Z,38.1730
2023-01-09T06:35:27.805Z,38.6220
2023-01-09T06:36:30.168Z,38.5610
2023-01-09T06:37:30.527Z,38.3900
2023-01-09T06:38:32.805Z,38.2590
2023-01-09T06:39:35.228Z,37.9100
2023-01-09T06:40:37.670Z,37.9430
2023-01-09T06:41:37.904Z,37.5920
2023-01-09T06:42:40.271Z,37.5740
2023-01-09T06:43:42.653Z,37.6220
2023-01-09T06:44:45.047Z,37.3880
2023-01-09T06:45:45.307Z,37.2950
2023-01-09T06:46:47.682Z,37.2450
2023-01-09T06:47:50.220Z,37.1410
2023-01-09T06:48:52.468Z,37.0860
2023-01-09T06:49:54.854Z,37.0880
2023-01-09T06:50:57.254Z,37.0800
2023-01-09T06:51:59.601Z,37.0370
2023-01-09T06:54:08.763Z,37.0490
2023-01-09T06:55:11.040Z,37.0270
2023-01-09T06:56:13.387Z,36.9920
2023-01-09T06:57:13.586Z,36.9440
2023-01-09T06:58:15.954Z,36.9360
2023-01-09T06:59:18.381Z,36.9590
2023-01-09T07:00:20.722Z,36.9530
2023-01-09T07:01:21.088Z,36.9790
2023-01-09T07:02:23.363Z,36.9380
2023-01-09T07:03:25.749Z,36.9790
2023-01-09T07:04:28.159Z,36.9530
2023-01-09T07:05:28.341Z,37.0200
2023-01-09T07:06:30.707Z,36.9910
2023-01-09T07:07:33.121Z,36.9490
2023-01-09T07:08:35.493Z,36.9910
2023-01-09T07:09:37.878Z,36.9660
2023-01-09T07:10:38.087Z,36.9500
2023-01-09T07:11:40.637Z,36.9810
2023-01-09T07:12:42.910Z,36.9810
2023-01-09T07:13:45.266Z,36.9820
2023-01-09T07:14:45.524Z,36.9630
2023-01-09T07:15:47.890Z,36.9750
2023-01-09T07:16:50.196Z,36.9940
2023-01-09T07:17:52.601Z,37.0120
2023-01-09T07:18:52.855Z,37.0180
2023-01-09T07:19:55.395Z,36.9940
2023-01-09T07:20:57.676Z,37.0150
2023-01-09T07:22:00.115Z,37.0340
2023-01-09T07:23:00.350Z,36.9880
2023-01-09T07:24:02.743Z,37.0240
2023-01-09T07:25:05.170Z,36.9590
2023-01-09T07:26:07.506Z,36.9820
2023-01-09T07:27:07.723Z,37.0700
2023-01-09T07:28:10.120Z,37.0270
2023-01-09T07:29:12.517Z,36.9860
2023-01-09T07:30:14.948Z,37.0330
2023-01-09T07:31:17.355Z,36.9930
2023-01-09T07:32:19.683Z,37.0290
2023-01-09T07:33:22.063Z,37.0460
2023-01-09T07:34:24.430Z,37.0530
2023-01-09T07:35:24.753Z,37.0940
2023-01-09T07:36:27.032Z,37.0820
2023-01-09T07:37:29.395Z,37.0750
2023-01-09T07:38:31.765Z,37.0210
2023-01-09T07:39:34.121Z,36.9940
2023-01-09T07:40:34.346Z,37.0060
2023-01-09T07:41:36.615Z,37.0320
2023-01-09T07:42:38.977Z,37.0440
2023-01-09T07:43:41.265Z,37.0230
2023-01-09T07:44:43.613Z,37.0140
2023-01-09T07:45:43.863Z,37.0500
2023-01-09T07:46:46.114Z,37.0610
2023-01-09T07:47:48.443Z,37.1030
2023-01-09T07:48:50.784Z,37.0730
2023-01-09T07:49:53.129Z,37.0840
2023-01-09T07:50:55.475Z,37.0570
2023-01-09T07:51:55.631Z,37.0930
2023-01-09T07:52:57.989Z,37.0610
2023-01-09T07:54:00.308Z,37.1140
2023-01-09T07:55:02.663Z,37.0970
2023-01-09T07:56:05.010Z,37.0820
2023-01-09T07:57:05.124Z,37.0700
2023-01-09T07:58:05.351Z,37.0930
2023-01-09T07:59:07.692Z,37.0760
2023-01-09T08:00:10.035Z,37.1030
2023-01-09T08:01:12.762Z,37.1220
2023-01-09T08:02:12.738Z,37.1270
2023-01-09T08:03:14.997Z,37.1350
2023-01-09T08:04:17.332Z,37.1160
2023-01-09T08:05:19.687Z,37.1350
2023-01-09T08:06:22.034Z,37.1040
2023-01-09T08:07:22.175Z,37.1350
2023-01-09T08:08:24.495Z,37.1220
2023-01-09T08:09:26.820Z,37.1150
2023-01-09T08:10:29.190Z,37.1100
2023-01-09T08:11:29.413Z,37.1160
2023-01-09T08:12:31.709Z,37.0990
2023-01-09T08:13:34.083Z,37.1270
2023-01-09T08:14:36.351Z,37.0980
2023-01-09T08:15:38.756Z,37.0930
2023-01-09T08:16:41.146Z,37.0980
2023-01-09T08:17:41.219Z,37.0830
2023-01-09T08:18:43.580Z,37.0110
2023-01-09T08:19:45.932Z,37.0240
2023-01-09T08:20:48.313Z,37.0500
2023-01-09T08:21:50.714Z,37.0530
2023-01-09T08:22:50.921Z,37.0160
2023-01-09T08:23:53.255Z,37.0620
2023-01-09T08:24:55.604Z,37.0380
2023-01-09T08:25:57.958Z,37.0110
2023-01-09T08:27:00.325Z,37.0460
2023-01-09T08:28:00.484Z,36.9960
2023-01-09T08:29:02.838Z,37.0190
2023-01-09T08:30:05.156Z,36.9730
2023-01-09T08:31:07.637Z,37.0230
2023-01-09T08:32:10.053Z,37.0590
2023-01-09T08:33:10.124Z,37.0260
2023-01-09T08:34:12.485Z,37.0130
2023-01-09T08:35:14.847Z,37.0260
2023-01-09T08:36:17.241Z,36.9820
2023-01-09T08:37:17.403Z,36.9180
2023-01-09T08:38:19.713Z,36.9060
2023-01-09T08:39:22.074Z,36.9730
2023-01-09T08:40:24.496Z,37.0320
2023-01-09T08:41:26.877Z,36.9980
2023-01-09T08:42:27.190Z,36.9620
2023-01-09T08:43:29.529Z,36.9730
2023-01-09T08:44:32.020Z,36.9410
2023-01-09T08:45:32.175Z,36.9860
2023-01-09T08:46:34.877Z,36.9520
2023-01-09T08:47:37.022Z,36.9180
2023-01-09T08:48:39.279Z,36.9290
2023-01-09T08:49:41.640Z,36.9290
2023-01-09T08:50:41.835Z,36.9350
2023-01-09T08:51:44.215Z,36.9290
2023-01-09T08:52:46.661Z,36.8840
2023-01-09T08:53:48.990Z,36.7990
2023-01-09T08:54:49.255Z,36.8520
2023-01-09T08:55:51.617Z,36.8460
2023-01-09T08:56:53.973Z,36.8600
2023-01-09T08:57:56.324Z,36.8370
2023-01-09T08:58:56.491Z,36.8790
2023-01-09T08:59:58.853Z,36.9010
2023-01-09T09:01:01.181Z,36.9290
2023-01-09T09:02:03.472Z,36.8700
2023-01-09T09:03:05.893Z,36.8380
2023-01-09T09:04:08.137Z,36.8160
2023-01-09T09:05:08.345Z,36.8560
2023-01-09T09:06:10.708Z,36.8650
2023-01-09T09:07:13.078Z,36.8580
2023-01-09T09:08:15.396Z,36.8310
2023-01-09T09:09:17.729Z,36.8750
2023-01-09T09:10:17.961Z,36.8740
2023-01-09T09:12:23.726Z,36.8640
2023-01-09T09:13:27.355Z,36.8540
2023-01-09T09:14:29.505Z,36.8080
2023-01-09T09:15:31.890Z,36.7700
2023-01-09T09:16:34.204Z,36.7730
2023-01-09T09:17:36.542Z,36.7290
2023-01-09T09:18:36.780Z,36.7500
2023-01-09T09:19:39.100Z,36.7350
2023-01-09T09:20:41.461Z,36.7010
2023-01-09T09:21:43.835Z,36.6840
2023-01-09T09:22:46.190Z,36.6890
2023-01-09T09:23:46.427Z,36.6860
2023-01-09T09:24:50.920Z,36.7700
2023-01-09T09:25:33.944Z,36.7900
2023-01-09T09:26:36.313Z,36.7610
2023-01-09T09:27:36.599Z,36.7450
2023-01-09T09:28:38.970Z,36.7050
2023-01-09T09:29:41.372Z,36.6970
2023-01-09T09:30:43.748Z,36.6970
2023-01-09T09:31:43.926Z,36.7610
2023-01-09T09:32:46.309Z,36.7670
2023-01-09T09:33:48.613Z,36.6920
2023-01-09T09:34:50.979Z,36.6700
2023-01-09T09:35:53.292Z,36.6590
2023-01-09T09:36:53.571Z,36.6940
2023-01-09T09:37:55.827Z,36.6450
2023-01-09T09:38:58.173Z,36.5550
2023-01-09T09:40:09.617Z,36.5730
2023-01-09T09:41:02.858Z,36.6420
2023-01-09T09:42:05.198Z,36.5960
2023-01-09T09:43:05.405Z,36.5080
2023-01-09T09:44:07.752Z,36.4990
2023-01-09T09:45:10.124Z,36.4670
2023-01-09T09:46:12.528Z,36.4930
2023-01-09T09:47:14.777Z,36.5720
2023-01-09T09:48:14.990Z,36.5830
2023-01-09T09:49:17.348Z,36.5640
2023-01-09T09:50:19.714Z,36.5610
2023-01-09T09:51:22.055Z,36.5830
2023-01-09T09:52:24.404Z,36.6420
2023-01-09T09:53:24.608Z,36.5790
2023-01-09T09:54:26.964Z,36.5210
2023-01-09T09:55:29.343Z,36.4250
2023-01-09T09:56:31.606Z,36.3140
2023-01-09T09:57:33.891Z,36.3320
2023-01-09T09:58:34.070Z,36.5200
2023-01-09T09:59:36.383Z,36.7100
2023-01-09T10:00:39.802Z,36.8800
2023-01-09T10:01:40.972Z,36.9310
2023-01-09T10:02:43.262Z,37.0740
2023-01-09T10:03:43.570Z,37.1270
2023-01-09T10:04:45.664Z,36.6640
2023-01-09T10:05:48.002Z,37.1190
2023-01-09T10:06:50.307Z,37.2900
2023-01-09T10:07:52.656Z,37.3370
2023-01-09T10:08:54.996Z,37.3450
2023-01-09T10:09:55.192Z,37.4020
2023-01-09T10:10:57.541Z,37.3960
2023-01-09T10:11:59.864Z,37.4250
2023-01-09T10:13:02.247Z,37.3690
2023-01-09T10:14:06.299Z,37.3700
2023-01-09T10:15:04.832Z,37.3040
2023-01-09T10:16:07.316Z,37.0080
2023-01-09T10:17:09.542Z,36.7750
2023-01-09T10:18:11.795Z,36.8060
2023-01-09T10:19:14.098Z,36.9170
2023-01-09T10:20:16.358Z,36.9980
2023-01-09T10:21:16.610Z,37.0100
2023-01-09T10:22:18.774Z,36.7340
2023-01-09T10:23:21.081Z,36.4190
2023-01-09T10:24:23.393Z,36.6610
2023-01-09T10:25:25.686Z,36.6130
2023-01-09T10:26:28.023Z,36.6600
2023-01-09T10:27:30.317Z,36.6310
2023-01-09T10:28:30.484Z,36.7380
2023-01-09T10:29:32.743Z,36.7370
2023-01-09T10:30:35.021Z,36.6770
2023-01-09T10:31:37.494Z,36.7750
2023-01-09T10:32:39.681Z,36.8150
2023-01-09T10:33:41.961Z,36.7960
2023-01-09T10:34:42.129Z,36.8200
2023-01-09T10:35:48.102Z,36.6580
2023-01-09T10:36:49.094Z,36.6700
2023-01-09T10:37:49.118Z,36.6530
2023-01-09T10:38:49.295Z,36.5820
2023-01-09T10:39:49.482Z,36.5190
2023-01-09T10:40:51.840Z,36.7030
2023-01-09T10:41:54.302Z,36.8240
2023-01-09T10:42:56.443Z,36.9430
2023-01-09T10:43:56.611Z,37.0270
2023-01-09T10:44:58.897Z,37.0480
2023-01-09T10:46:01.219Z,37.0960
2023-01-09T10:47:03.679Z,37.1250
2023-01-09T10:48:06.018Z,37.0980
2023-01-09T10:49:08.206Z,37.1110
2023-01-09T10:50:08.387Z,37.0730
2023-01-09T10:51:10.727Z,37.1380
2023-01-09T10:52:15.456Z,37.1170
2023-01-09T10:53:15.431Z,37.1380
2023-01-09T10:54:17.799Z,37.1330
2023-01-09T10:55:17.920Z,37.1230
2023-01-09T10:56:20.300Z,37.0920
2023-01-09T10:57:22.627Z,37.0860
2023-01-09T10:58:24.968Z,37.1090
2023-01-09T10:59:27.342Z,37.1360
2023-01-09T11:00:29.723Z,37.1790
2023-01-09T11:01:29.960Z,37.1470
2023-01-09T11:02:32.429Z,37.1890
2023-01-09T11:03:34.823Z,37.2270
2023-01-09T11:04:37.059Z,37.2760
2023-01-09T11:05:37.287Z,37.2590
2023-01-09T11:06:39.623Z,37.2800
2023-01-09T11:07:42.002Z,37.3660
2023-01-09T11:08:44.374Z,37.3510
2023-01-09T11:09:44.599Z,37.3660
2023-01-09T11:11:20.097Z,37.5480
2023-01-09T11:12:20.534Z,37.5320
2023-01-09T11:13:22.758Z,37.4970
2023-01-09T11:14:25.012Z,37.4580
2023-01-09T11:15:27.326Z,37.4690
2023-01-09T11:16:29.647Z,37.4390
2023-01-09T11:17:29.759Z,37.4510
2023-01-09T11:18:32.080Z,37.4450
2023-01-09T11:19:34.507Z,37.4640
2023-01-09T11:20:36.806Z,37.4370
2023-01-09T11:21:39.199Z,37.4580
2023-01-09T11:22:39.387Z,37.4340
2023-01-09T11:23:41.898Z,37.4340
2023-01-09T11:24:44.107Z,37.4060
2023-01-09T11:25:46.477Z,37.4160
2023-01-09T11:26:48.822Z,37.4120
2023-01-09T11:27:49.009Z,37.3600
2023-01-09T11:28:51.469Z,37.3740
2023-01-09T11:29:53.639Z,37.3620
2023-01-09T11:30:55.953Z,37.3660
2023-01-09T11:31:58.347Z,37.3800
2023-01-09T11:32:58.535Z,37.3560
2023-01-09T11:34:00.919Z,37.3390
2023-01-09T11:35:03.272Z,37.3010
2023-01-09T11:36:05.626Z,37.2990
2023-01-09T11:37:08.092Z,37.2720
2023-01-09T11:38:08.206Z,37.2800
2023-01-09T11:39:10.608Z,37.2830
2023-01-09T11:40:12.934Z,37.2800
2023-01-09T11:41:15.300Z,37.2800
2023-01-09T11:42:17.657Z,37.2800
2023-01-09T11:43:17.886Z,37.2860
2023-01-09T11:44:20.269Z,37.3150
2023-01-09T11:45:22.642Z,37.3090
2023-01-09T11:46:25.081Z,37.3090
2023-01-09T11:47:25.277Z,37.3030
2023-01-09T11:48:27.682Z,37.3030
2023-01-09T11:49:30.099Z,37.3300
2023-01-09T11:50:30.264Z,37.3020
2023-01-09T11:51:32.637Z,37.3280
2023-01-09T11:52:35.018Z,37.3020
2023-01-09T11:53:37.401Z,37.2960
2023-01-09T11:54:39.935Z,37.2830
2023-01-09T11:55:42.741Z,37.2870
2023-01-09T11:56:42.346Z,37.2370
2023-01-09T11:57:44.686Z,37.1710
2023-01-09T11:58:46.987Z,37.0940
2023-01-09T11:59:49.351Z,37.1280
2023-01-09T12:00:49.511Z,37.0130
2023-01-09T12:01:51.975Z,36.9120
2023-01-09T12:02:54.266Z,36.8160
2023-01-09T12:03:56.569Z,36.6110
2023-01-09T12:04:58.976Z,36.4500
2023-01-09T12:05:59.199Z,36.3990
2023-01-09T12:07:01.544Z,36.3120
2023-01-09T12:08:03.894Z,36.2510
2023-01-09T12:09:06.244Z,36.2630
2023-01-09T12:10:08.661Z,36.2040
2023-01-09T12:11:08.825Z,36.2230
2023-01-09T12:12:11.164Z,36.3060
2023-01-09T12:13:13.517Z,36.3970
2023-01-09T12:14:15.884Z,36.6000
2023-01-09T12:15:16.113Z,36.6100
2023-01-09T12:16:18.600Z,36.5280
2023-01-09T12:17:20.828Z,36.4790
2023-01-09T12:18:23.198Z,36.5660
2023-01-09T12:19:25.531Z,36.4760
2023-01-09T12:20:25.737Z,36.5400
2023-01-09T12:21:28.085Z,36.5760
2023-01-09T12:22:30.416Z,36.6810
2023-01-09T12:23:32.757Z,36.8700
2023-01-09T12:24:35.117Z,36.9330
2023-01-09T12:25:37.493Z,36.9230
2023-01-09T12:26:39.846Z,36.9860
2023-01-09T12:27:42.203Z,37.0820
2023-01-09T12:28:44.605Z,37.1710
2023-01-09T12:29:44.835Z,37.2290
2023-01-09T12:30:47.287Z,37.2570
2023-01-09T12:31:49.744Z,37.2920
2023-01-09T12:32:51.963Z,37.3420